sensor_id;sensor_type;location;lat;lon;timestamp;temperature;humidity
25438;DHT22;13364;49.084;9.978;2023-02-28T00:00:21;-3.60;92.90
25438;DHT22;13364;49.084;9.978;2023-02-28T00:02:49;-3.60;93.00
25438;DHT22;13364;49.084;9.978;2023-02-28T00:05:18;-3.60;93.20
25438;DHT22;13364;49.084;9.978;2023-02-28T00:07:46;-3.60;93.30
25438;DHT22;13364;49.084;9.978;2023-02-28T00:10:17;-3.70;93.50
25438;DHT22;13364;49.084;9.978;2023-02-28T00:12:48;-3.70;93.60
25438;DHT22;13364;49.084;9.978;2023-02-28T00:15:16;-3.60;93.60
25438;DHT22;13364;49.084;9.978;2023-02-28T00:17:43;-3.60;93.70
25438;DHT22;13364;49.084;9.978;2023-02-28T00:20:12;-3.70;93.90
25438;DHT22;13364;49.084;9.978;2023-02-28T00:22:42;-3.70;94.10
25438;DHT22;13364;49.084;9.978;2023-02-28T00:25:11;-3.70;94.30
25438;DHT22;13364;49.084;9.978;2023-02-28T00:27:39;-3.70;94.40
25438;DHT22;13364;49.084;9.978;2023-02-28T00:30:09;-3.80;94.70
25438;DHT22;13364;49.084;9.978;2023-02-28T00:32:37;-3.80;94.90
25438;DHT22;13364;49.084;9.978;2023-02-28T00:38:07;-3.80;95.40
25438;DHT22;13364;49.084;9.978;2023-02-28T00:40:34;-3.90;95.60
25438;DHT22;13364;49.084;9.978;2023-02-28T00:43:02;-4.00;96.00
25438;DHT22;13364;49.084;9.978;2023-02-28T00:45:30;-4.00;96.20
25438;DHT22;13364;49.084;9.978;2023-02-28T00:47:57;-4.00;96.60
25438;DHT22;13364;49.084;9.978;2023-02-28T00:50:24;-4.00;96.80
25438;DHT22;13364;49.084;9.978;2023-02-28T00:52:51;-4.00;97.10
25438;DHT22;13364;49.084;9.978;2023-02-28T00:55:19;-4.00;97.20
25438;DHT22;13364;49.084;9.978;2023-02-28T00:57:47;-4.00;97.40
25438;DHT22;13364;49.084;9.978;2023-02-28T01:00:14;-4.00;97.60
25438;DHT22;13364;49.084;9.978;2023-02-28T01:02:42;-4.00;97.90
25438;DHT22;13364;49.084;9.978;2023-02-28T01:05:09;-4.00;98.00
25438;DHT22;13364;49.084;9.978;2023-02-28T01:07:36;-4.00;98.20
25438;DHT22;13364;49.084;9.978;2023-02-28T01:10:05;-4.00;98.20
25438;DHT22;13364;49.084;9.978;2023-02-28T01:12:32;-4.00;98.40
25438;DHT22;13364;49.084;9.978;2023-02-28T01:14:59;-4.00;98.50
25438;DHT22;13364;49.084;9.978;2023-02-28T01:17:26;-4.00;98.60
25438;DHT22;13364;49.084;9.978;2023-02-28T01:19:54;-4.00;98.70
25438;DHT22;13364;49.084;9.978;2023-02-28T01:22:24;-4.00;98.80
25438;DHT22;13364;49.084;9.978;2023-02-28T01:24:51;-4.10;98.90
25438;DHT22;13364;49.084;9.978;2023-02-28T01:27:18;-4.10;99.10
25438;DHT22;13364;49.084;9.978;2023-02-28T01:29:45;-4.10;99.50
25438;DHT22;13364;49.084;9.978;2023-02-28T01:32:12;-4.10;99.70
25438;DHT22;13364;49.084;9.978;2023-02-28T01:34:40;-4.10;99.80
25438;DHT22;13364;49.084;9.978;2023-02-28T01:37:07;-4.10;99.90
25438;DHT22;13364;49.084;9.978;2023-02-28T01:39:34;-4.10;100.00
25438;DHT22;13364;49.084;9.978;2023-02-28T01:42:02;-4.10;100.00
25438;DHT22;13364;49.084;9.978;2023-02-28T01:45:00;-4.10;100.00
25438;DHT22;13364;49.084;9.978;2023-02-28T01:47:36;-4.10;100.00
25438;DHT22;13364;49.084;9.978;2023-02-28T01:50:09;-4.10;100.00
25438;DHT22;13364;49.084;9.978;2023-02-28T01:52:43;-4.10;100.00
25438;DHT22;13364;49.084;9.978;2023-02-28T01:55:12;-4.10;100.00
25438;DHT22;13364;49.084;9.978;2023-02-28T01:57:49;-4.10;100.00
25438;DHT22;13364;49.084;9.978;2023-02-28T02:00:20;-4.10;100.00
25438;DHT22;13364;49.084;9.978;2023-02-28T02:02:51;-4.10;100.00
25438;DHT22;13364;49.084;9.978;2023-02-28T02:05:22;-4.10;100.00
25438;DHT22;13364;49.084;9.978;2023-02-28T02:07:54;-4.10;100.00
25438;DHT22;13364;49.084;9.978;2023-02-28T02:10:40;-4.10;100.00
25438;DHT22;13364;49.084;9.978;2023-02-28T02:18:48;-4.10;100.00
25438;DHT22;13364;49.084;9.978;2023-02-28T02:21:40;-4.10;100.00
25438;DHT22;13364;49.084;9.978;2023-02-28T02:27:26;-4.00;100.00
25438;DHT22;13364;49.084;9.978;2023-02-28T02:35:52;-4.10;100.00
25438;DHT22;13364;49.084;9.978;2023-02-28T02:43:25;-4.10;100.00
25438;DHT22;13364;49.084;9.978;2023-02-28T02:46:01;-4.00;100.00
25438;DHT22;13364;49.084;9.978;2023-02-28T02:48:33;-4.00;100.00
25438;DHT22;13364;49.084;9.978;2023-02-28T02:51:05;-4.00;100.00
25438;DHT22;13364;49.084;9.978;2023-02-28T02:54:28;-4.10;100.00
25438;DHT22;13364;49.084;9.978;2023-02-28T02:57:04;-4.00;100.00
25438;DHT22;13364;49.084;9.978;2023-02-28T02:59:32;-4.00;100.00
25438;DHT22;13364;49.084;9.978;2023-02-28T03:02:04;-4.00;100.00
25438;DHT22;13364;49.084;9.978;2023-02-28T03:04:38;-4.00;100.00
25438;DHT22;13364;49.084;9.978;2023-02-28T03:07:07;-4.00;100.00
25438;DHT22;13364;49.084;9.978;2023-02-28T03:09:34;-4.00;100.00
25438;DHT22;13364;49.084;9.978;2023-02-28T03:12:03;-4.00;100.00
25438;DHT22;13364;49.084;9.978;2023-02-28T03:15:08;-4.00;100.00
25438;DHT22;13364;49.084;9.978;2023-02-28T03:23:32;-4.00;100.00
25438;DHT22;13364;49.084;9.978;2023-02-28T03:26:16;-4.00;100.00
25438;DHT22;13364;49.084;9.978;2023-02-28T03:29:05;-4.00;100.00
25438;DHT22;13364;49.084;9.978;2023-02-28T03:31:38;-4.00;100.00
25438;DHT22;13364;49.084;9.978;2023-02-28T03:34:26;-4.00;100.00
25438;DHT22;13364;49.084;9.978;2023-02-28T03:37:04;-4.00;100.00
25438;DHT22;13364;49.084;9.978;2023-02-28T03:42:15;-4.00;100.00
25438;DHT22;13364;49.084;9.978;2023-02-28T03:44:51;-4.00;100.00
25438;DHT22;13364;49.084;9.978;2023-02-28T03:47:39;-4.10;100.00
25438;DHT22;13364;49.084;9.978;2023-02-28T03:50:20;-4.10;100.00
25438;DHT22;13364;49.084;9.978;2023-02-28T03:52:52;-4.10;100.00
25438;DHT22;13364;49.084;9.978;2023-02-28T03:55:21;-4.10;100.00
25438;DHT22;13364;49.084;9.978;2023-02-28T03:58:11;-4.10;100.00
25438;DHT22;13364;49.084;9.978;2023-02-28T04:03:38;-4.10;100.00
25438;DHT22;13364;49.084;9.978;2023-02-28T04:06:08;-4.10;100.00
25438;DHT22;13364;49.084;9.978;2023-02-28T04:08:40;-4.20;100.00
25438;DHT22;13364;49.084;9.978;2023-02-28T04:13:45;-4.20;100.00
25438;DHT22;13364;49.084;9.978;2023-02-28T04:16:13;-4.20;100.00
25438;DHT22;13364;49.084;9.978;2023-02-28T04:19:00;-4.20;100.00
25438;DHT22;13364;49.084;9.978;2023-02-28T04:21:37;-4.20;100.00
25438;DHT22;13364;49.084;9.978;2023-02-28T04:24:07;-4.20;100.00
25438;DHT22;13364;49.084;9.978;2023-02-28T04:26:36;-4.10;100.00
25438;DHT22;13364;49.084;9.978;2023-02-28T04:29:06;-4.10;100.00
25438;DHT22;13364;49.084;9.978;2023-02-28T04:31:34;-4.10;100.00
25438;DHT22;13364;49.084;9.978;2023-02-28T04:34:01;-4.00;100.00
25438;DHT22;13364;49.084;9.978;2023-02-28T04:36:29;-4.00;100.00
25438;DHT22;13364;49.084;9.978;2023-02-28T04:38:56;-4.00;100.00
25438;DHT22;13364;49.084;9.978;2023-02-28T04:41:23;-3.90;100.00
25438;DHT22;13364;49.084;9.978;2023-02-28T04:43:51;-4.00;100.00
25438;DHT22;13364;49.084;9.978;2023-02-28T04:46:19;-4.00;100.00
25438;DHT22;13364;49.084;9.978;2023-02-28T04:48:47;-4.00;100.00
25438;DHT22;13364;49.084;9.978;2023-02-28T04:51:16;-4.00;100.00
25438;DHT22;13364;49.084;9.978;2023-02-28T04:53:44;-4.10;100.00
25438;DHT22;13364;49.084;9.978;2023-02-28T04:56:16;-4.10;100.00
25438;DHT22;13364;49.084;9.978;2023-02-28T04:58:44;-4.10;100.00
25438;DHT22;13364;49.084;9.978;2023-02-28T05:01:22;-4.20;100.00
25438;DHT22;13364;49.084;9.978;2023-02-28T05:03:49;-4.20;100.00
25438;DHT22;13364;49.084;9.978;2023-02-28T05:06:18;-4.20;100.00
25438;DHT22;13364;49.084;9.978;2023-02-28T05:08:45;-4.20;100.00
25438;DHT22;13364;49.084;9.978;2023-02-28T05:11:22;-4.20;100.00
25438;DHT22;13364;49.084;9.978;2023-02-28T05:13:51;-4.20;100.00
25438;DHT22;13364;49.084;9.978;2023-02-28T05:16:18;-4.20;100.00
25438;DHT22;13364;49.084;9.978;2023-02-28T05:18:46;-4.20;100.00
25438;DHT22;13364;49.084;9.978;2023-02-28T05:23:53;-4.10;100.00
25438;DHT22;13364;49.084;9.978;2023-02-28T05:26:21;-4.10;100.00
25438;DHT22;13364;49.084;9.978;2023-02-28T05:28:48;-4.10;100.00
25438;DHT22;13364;49.084;9.978;2023-02-28T05:31:15;-4.10;100.00
25438;DHT22;13364;49.084;9.978;2023-02-28T05:33:42;-4.10;100.00
25438;DHT22;13364;49.084;9.978;2023-02-28T05:36:09;-4.10;100.00
25438;DHT22;13364;49.084;9.978;2023-02-28T05:38:36;-4.20;100.00
25438;DHT22;13364;49.084;9.978;2023-02-28T05:41:06;-4.20;100.00
25438;DHT22;13364;49.084;9.978;2023-02-28T05:43:34;-4.30;100.00
25438;DHT22;13364;49.084;9.978;2023-02-28T05:46:09;-4.30;100.00
25438;DHT22;13364;49.084;9.978;2023-02-28T05:48:38;-4.30;100.00
25438;DHT22;13364;49.084;9.978;2023-02-28T05:51:06;-4.30;100.00
25438;DHT22;13364;49.084;9.978;2023-02-28T05:53:34;-4.30;100.00
25438;DHT22;13364;49.084;9.978;2023-02-28T05:56:01;-4.40;100.00
25438;DHT22;13364;49.084;9.978;2023-02-28T05:58:28;-4.40;100.00
25438;DHT22;13364;49.084;9.978;2023-02-28T06:04:05;-4.40;100.00
25438;DHT22;13364;49.084;9.978;2023-02-28T06:06:33;-4.40;100.00
25438;DHT22;13364;49.084;9.978;2023-02-28T06:09:04;-4.40;100.00
25438;DHT22;13364;49.084;9.978;2023-02-28T06:11:32;-4.40;100.00
25438;DHT22;13364;49.084;9.978;2023-02-28T06:14:00;-4.40;100.00
25438;DHT22;13364;49.084;9.978;2023-02-28T06:16:29;-4.40;100.00
25438;DHT22;13364;49.084;9.978;2023-02-28T06:18:59;-4.40;100.00
25438;DHT22;13364;49.084;9.978;2023-02-28T06:21:29;-4.40;100.00
25438;DHT22;13364;49.084;9.978;2023-02-28T06:23:58;-4.40;100.00
25438;DHT22;13364;49.084;9.978;2023-02-28T06:26:25;-4.50;100.00
25438;DHT22;13364;49.084;9.978;2023-02-28T06:28:53;-4.50;100.00
25438;DHT22;13364;49.084;9.978;2023-02-28T06:31:20;-4.40;100.00
25438;DHT22;13364;49.084;9.978;2023-02-28T06:33:48;-4.40;100.00
25438;DHT22;13364;49.084;9.978;2023-02-28T06:36:16;-4.40;100.00
25438;DHT22;13364;49.084;9.978;2023-02-28T06:38:44;-4.40;100.00
25438;DHT22;13364;49.084;9.978;2023-02-28T06:41:11;-4.40;100.00
25438;DHT22;13364;49.084;9.978;2023-02-28T06:43:40;-4.40;100.00
25438;DHT22;13364;49.084;9.978;2023-02-28T06:46:10;-4.40;100.00
25438;DHT22;13364;49.084;9.978;2023-02-28T06:48:38;-4.40;100.00
25438;DHT22;13364;49.084;9.978;2023-02-28T06:51:10;-4.40;100.00
25438;DHT22;13364;49.084;9.978;2023-02-28T06:53:37;-4.40;100.00
25438;DHT22;13364;49.084;9.978;2023-02-28T06:56:07;-4.40;100.00
25438;DHT22;13364;49.084;9.978;2023-02-28T06:58:35;-4.40;100.00
25438;DHT22;13364;49.084;9.978;2023-02-28T07:01:02;-4.40;100.00
25438;DHT22;13364;49.084;9.978;2023-02-28T07:03:30;-4.40;100.00
25438;DHT22;13364;49.084;9.978;2023-02-28T07:06:00;-4.30;100.00
25438;DHT22;13364;49.084;9.978;2023-02-28T07:08:28;-4.20;100.00
25438;DHT22;13364;49.084;9.978;2023-02-28T07:10:55;-4.20;100.00
25438;DHT22;13364;49.084;9.978;2023-02-28T07:13:23;-4.20;100.00
25438;DHT22;13364;49.084;9.978;2023-02-28T07:16:02;-4.10;100.00
25438;DHT22;13364;49.084;9.978;2023-02-28T07:18:31;-4.10;100.00
25438;DHT22;13364;49.084;9.978;2023-02-28T07:20:58;-4.00;100.00
25438;DHT22;13364;49.084;9.978;2023-02-28T07:23:25;-4.00;100.00
25438;DHT22;13364;49.084;9.978;2023-02-28T07:25:52;-3.90;100.00
25438;DHT22;13364;49.084;9.978;2023-02-28T07:28:23;-3.90;100.00
25438;DHT22;13364;49.084;9.978;2023-02-28T07:30:50;-3.80;100.00
25438;DHT22;13364;49.084;9.978;2023-02-28T07:33:17;-3.70;100.00
25438;DHT22;13364;49.084;9.978;2023-02-28T07:35:44;-3.60;100.00
25438;DHT22;13364;49.084;9.978;2023-02-28T07:38:11;-3.50;100.00
25438;DHT22;13364;49.084;9.978;2023-02-28T07:40:40;-3.50;100.00
25438;DHT22;13364;49.084;9.978;2023-02-28T07:43:07;-3.40;100.00
25438;DHT22;13364;49.084;9.978;2023-02-28T07:45:34;-3.20;100.00
25438;DHT22;13364;49.084;9.978;2023-02-28T07:48:02;-3.20;100.00
25438;DHT22;13364;49.084;9.978;2023-02-28T07:50:30;-3.20;100.00
25438;DHT22;13364;49.084;9.978;2023-02-28T07:52:58;-3.10;100.00
25438;DHT22;13364;49.084;9.978;2023-02-28T07:55:26;-3.00;100.00
25438;DHT22;13364;49.084;9.978;2023-02-28T07:57:53;-2.90;100.00
25438;DHT22;13364;49.084;9.978;2023-02-28T08:00:21;-2.80;100.00
25438;DHT22;13364;49.084;9.978;2023-02-28T08:02:48;-2.70;99.60
25438;DHT22;13364;49.084;9.978;2023-02-28T08:05:15;-2.60;99.20
25438;DHT22;13364;49.084;9.978;2023-02-28T08:07:45;-2.60;98.60
25438;DHT22;13364;49.084;9.978;2023-02-28T08:10:14;-2.60;98.70
25438;DHT22;13364;49.084;9.978;2023-02-28T08:12:41;-2.40;98.30
25438;DHT22;13364;49.084;9.978;2023-02-28T08:15:09;-2.30;97.80
25438;DHT22;13364;49.084;9.978;2023-02-28T08:17:36;-2.20;97.30
25438;DHT22;13364;49.084;9.978;2023-02-28T08:20:03;-2.10;96.90
25438;DHT22;13364;49.084;9.978;2023-02-28T08:22:31;-2.10;96.10
25438;DHT22;13364;49.084;9.978;2023-02-28T08:24:58;-2.00;95.60
25438;DHT22;13364;49.084;9.978;2023-02-28T08:27:25;-1.90;95.60
25438;DHT22;13364;49.084;9.978;2023-02-28T08:29:52;-1.80;94.50
25438;DHT22;13364;49.084;9.978;2023-02-28T08:32:19;-1.70;94.70
25438;DHT22;13364;49.084;9.978;2023-02-28T08:34:56;-1.60;93.00
25438;DHT22;13364;49.084;9.978;2023-02-28T08:37:23;-1.60;92.60
25438;DHT22;13364;49.084;9.978;2023-02-28T08:39:50;-1.60;92.30
25438;DHT22;13364;49.084;9.978;2023-02-28T08:42:22;-1.60;91.90
25438;DHT22;13364;49.084;9.978;2023-02-28T08:44:49;-1.70;92.30
25438;DHT22;13364;49.084;9.978;2023-02-28T08:47:16;-1.60;92.20
25438;DHT22;13364;49.084;9.978;2023-02-28T08:49:43;-1.50;92.20
25438;DHT22;13364;49.084;9.978;2023-02-28T08:52:10;-1.40;91.80
25438;DHT22;13364;49.084;9.978;2023-02-28T08:54:37;-1.30;91.60
25438;DHT22;13364;49.084;9.978;2023-02-28T08:57:04;-1.10;90.50
25438;DHT22;13364;49.084;9.978;2023-02-28T08:59:32;-1.00;90.30
25438;DHT22;13364;49.084;9.978;2023-02-28T09:01:59;-0.90;89.80
25438;DHT22;13364;49.084;9.978;2023-02-28T09:04:26;-0.80;90.00
25438;DHT22;13364;49.084;9.978;2023-02-28T09:06:53;-0.60;89.20
25438;DHT22;13364;49.084;9.978;2023-02-28T09:09:20;-0.50;87.50
25438;DHT22;13364;49.084;9.978;2023-02-28T09:11:47;-0.40;87.50
25438;DHT22;13364;49.084;9.978;2023-02-28T09:14:14;-0.30;87.60
25438;DHT22;13364;49.084;9.978;2023-02-28T09:16:44;-0.10;87.10
25438;DHT22;13364;49.084;9.978;2023-02-28T09:19:12;0.00;85.20
25438;DHT22;13364;49.084;9.978;2023-02-28T09:21:39;0.00;84.30
25438;DHT22;13364;49.084;9.978;2023-02-28T09:24:07;0.00;84.60
25438;DHT22;13364;49.084;9.978;2023-02-28T09:26:35;0.00;83.90
25438;DHT22;13364;49.084;9.978;2023-02-28T09:29:13;0.10;84.40
25438;DHT22;13364;49.084;9.978;2023-02-28T09:31:41;0.20;83.90
25438;DHT22;13364;49.084;9.978;2023-02-28T09:34:08;0.40;83.40
25438;DHT22;13364;49.084;9.978;2023-02-28T09:36:35;0.50;82.80
25438;DHT22;13364;49.084;9.978;2023-02-28T09:39:12;0.70;82.00
25438;DHT22;13364;49.084;9.978;2023-02-28T09:41:44;0.90;82.10
25438;DHT22;13364;49.084;9.978;2023-02-28T09:44:30;1.00;80.30
25438;DHT22;13364;49.084;9.978;2023-02-28T09:47:29;1.00;80.00
25438;DHT22;13364;49.084;9.978;2023-02-28T09:50:06;1.00;78.60
25438;DHT22;13364;49.084;9.978;2023-02-28T09:52:34;0.90;79.00
25438;DHT22;13364;49.084;9.978;2023-02-28T09:57:45;1.20;79.70
25438;DHT22;13364;49.084;9.978;2023-02-28T10:00:22;1.20;77.60
25438;DHT22;13364;49.084;9.978;2023-02-28T10:08:19;1.60;78.30
25438;DHT22;13364;49.084;9.978;2023-02-28T10:10:55;1.80;77.90
25438;DHT22;13364;49.084;9.978;2023-02-28T10:16:08;2.10;75.80
25438;DHT22;13364;49.084;9.978;2023-02-28T10:21:57;2.30;74.30
25438;DHT22;13364;49.084;9.978;2023-02-28T10:24:42;2.40;73.10
25438;DHT22;13364;49.084;9.978;2023-02-28T10:27:15;2.30;74.00
25438;DHT22;13364;49.084;9.978;2023-02-28T10:29:45;2.40;74.10
25438;DHT22;13364;49.084;9.978;2023-02-28T10:32:14;2.50;73.00
25438;DHT22;13364;49.084;9.978;2023-02-28T10:34:42;2.60;72.60
25438;DHT22;13364;49.084;9.978;2023-02-28T10:37:11;2.70;71.70
25438;DHT22;13364;49.084;9.978;2023-02-28T10:39:45;2.70;72.70
25438;DHT22;13364;49.084;9.978;2023-02-28T10:42:28;2.80;72.20
25438;DHT22;13364;49.084;9.978;2023-02-28T10:45:17;2.90;71.50
25438;DHT22;13364;49.084;9.978;2023-02-28T10:48:02;3.10;71.40
25438;DHT22;13364;49.084;9.978;2023-02-28T10:59:28;3.70;69.80
25438;DHT22;13364;49.084;9.978;2023-02-28T11:01:49;3.80;69.10
25438;DHT22;13364;49.084;9.978;2023-02-28T11:04:32;3.90;68.60
25438;DHT22;13364;49.084;9.978;2023-02-28T11:07:10;3.90;67.60
25438;DHT22;13364;49.084;9.978;2023-02-28T11:09:46;3.80;68.50
25438;DHT22;13364;49.084;9.978;2023-02-28T11:12:34;3.70;67.70
25438;DHT22;13364;49.084;9.978;2023-02-28T11:20:51;3.80;68.00
25438;DHT22;13364;49.084;9.978;2023-02-28T11:27:49;3.90;67.50
25438;DHT22;13364;49.084;9.978;2023-02-28T11:32:56;4.10;66.30
25438;DHT22;13364;49.084;9.978;2023-02-28T11:35:43;4.20;67.60
25438;DHT22;13364;49.084;9.978;2023-02-28T11:38:12;4.30;66.10
25438;DHT22;13364;49.084;9.978;2023-02-28T11:47:43;4.60;65.50
25438;DHT22;13364;49.084;9.978;2023-02-28T12:01:42;4.40;67.30
25438;DHT22;13364;49.084;9.978;2023-02-28T12:07:20;4.70;65.50
25438;DHT22;13364;49.084;9.978;2023-02-28T12:09:55;4.80;66.20
25438;DHT22;13364;49.084;9.978;2023-02-28T12:12:34;5.10;65.70
25438;DHT22;13364;49.084;9.978;2023-02-28T12:23:01;6.00;63.40
25438;DHT22;13364;49.084;9.978;2023-02-28T12:27:58;6.10;62.70
25438;DHT22;13364;49.084;9.978;2023-02-28T12:30:32;6.10;61.80
25438;DHT22;13364;49.084;9.978;2023-02-28T12:33:10;6.10;61.40
25438;DHT22;13364;49.084;9.978;2023-02-28T12:35:51;6.00;59.60
25438;DHT22;13364;49.084;9.978;2023-02-28T12:39:01;5.80;60.90
25438;DHT22;13364;49.084;9.978;2023-02-28T12:41:49;5.70;62.60
25438;DHT22;13364;49.084;9.978;2023-02-28T12:44:26;5.80;62.60
25438;DHT22;13364;49.084;9.978;2023-02-28T12:46:58;6.10;61.90
25438;DHT22;13364;49.084;9.978;2023-02-28T12:51:53;6.30;61.00
25438;DHT22;13364;49.084;9.978;2023-02-28T12:54:25;6.20;59.50
25438;DHT22;13364;49.084;9.978;2023-02-28T12:59:55;5.70;61.40
25438;DHT22;13364;49.084;9.978;2023-02-28T13:02:43;5.20;61.20
25438;DHT22;13364;49.084;9.978;2023-02-28T13:08:15;4.40;64.60
25438;DHT22;13364;49.084;9.978;2023-02-28T13:10:49;4.50;65.50
25438;DHT22;13364;49.084;9.978;2023-02-28T13:13:24;4.70;66.10
25438;DHT22;13364;49.084;9.978;2023-02-28T13:16:10;5.00;64.30
25438;DHT22;13364;49.084;9.978;2023-02-28T13:18:39;5.00;64.20
25438;DHT22;13364;49.084;9.978;2023-02-28T13:21:08;5.00;63.90
25438;DHT22;13364;49.084;9.978;2023-02-28T13:26:13;4.60;63.80
25438;DHT22;13364;49.084;9.978;2023-02-28T13:31:25;4.00;66.00
25438;DHT22;13364;49.084;9.978;2023-02-28T13:34:12;4.00;66.40
25438;DHT22;13364;49.084;9.978;2023-02-28T13:40:34;4.50;66.90
25438;DHT22;13364;49.084;9.978;2023-02-28T13:43:07;4.80;67.80
25438;DHT22;13364;49.084;9.978;2023-02-28T13:45:34;5.10;66.10
25438;DHT22;13364;49.084;9.978;2023-02-28T13:48:18;5.30;64.00
25438;DHT22;13364;49.084;9.978;2023-02-28T13:50:45;5.20;63.40
25438;DHT22;13364;49.084;9.978;2023-02-28T13:55:46;4.70;65.00
25438;DHT22;13364;49.084;9.978;2023-02-28T13:58:41;4.50;65.90
25438;DHT22;13364;49.084;9.978;2023-02-28T14:04:48;4.40;64.80
25438;DHT22;13364;49.084;9.978;2023-02-28T14:07:32;4.40;65.70
25438;DHT22;13364;49.084;9.978;2023-02-28T14:21:29;4.20;66.60
25438;DHT22;13364;49.084;9.978;2023-02-28T14:33:45;4.40;66.50
25438;DHT22;13364;49.084;9.978;2023-02-28T14:36:30;4.70;65.50
25438;DHT22;13364;49.084;9.978;2023-02-28T14:39:10;4.90;65.20
25438;DHT22;13364;49.084;9.978;2023-02-28T14:45:39;5.30;64.20
25438;DHT22;13364;49.084;9.978;2023-02-28T14:48:09;5.50;63.10
25438;DHT22;13364;49.084;9.978;2023-02-28T14:50:37;5.60;62.50
25438;DHT22;13364;49.084;9.978;2023-02-28T14:53:24;5.60;62.50
25438;DHT22;13364;49.084;9.978;2023-02-28T14:55:52;5.70;62.60
25438;DHT22;13364;49.084;9.978;2023-02-28T14:58:25;5.70;62.40
25438;DHT22;13364;49.084;9.978;2023-02-28T15:01:00;5.60;62.00
25438;DHT22;13364;49.084;9.978;2023-02-28T15:03:35;5.60;61.70
25438;DHT22;13364;49.084;9.978;2023-02-28T15:09:22;5.60;61.90
25438;DHT22;13364;49.084;9.978;2023-02-28T15:11:50;5.60;62.30
25438;DHT22;13364;49.084;9.978;2023-02-28T15:14:20;5.60;61.70
25438;DHT22;13364;49.084;9.978;2023-02-28T15:16:52;5.60;62.00
25438;DHT22;13364;49.084;9.978;2023-02-28T15:19:34;5.40;61.50
25438;DHT22;13364;49.084;9.978;2023-02-28T15:22:06;5.10;62.00
25438;DHT22;13364;49.084;9.978;2023-02-28T15:24:41;4.80;62.80
25438;DHT22;13364;49.084;9.978;2023-02-28T15:27:19;4.50;63.00
25438;DHT22;13364;49.084;9.978;2023-02-28T15:29:51;4.20;63.60
25438;DHT22;13364;49.084;9.978;2023-02-28T15:32:27;4.10;64.90
25438;DHT22;13364;49.084;9.978;2023-02-28T15:34:56;4.00;65.60
25438;DHT22;13364;49.084;9.978;2023-02-28T15:37:41;4.00;65.50
25438;DHT22;13364;49.084;9.978;2023-02-28T15:40:16;4.10;65.40
25438;DHT22;13364;49.084;9.978;2023-02-28T15:42:59;4.10;65.20
25438;DHT22;13364;49.084;9.978;2023-02-28T15:45:29;4.10;64.70
25438;DHT22;13364;49.084;9.978;2023-02-28T15:47:58;4.00;65.10
25438;DHT22;13364;49.084;9.978;2023-02-28T15:50:39;3.90;65.10
25438;DHT22;13364;49.084;9.978;2023-02-28T15:53:16;3.80;66.20
25438;DHT22;13364;49.084;9.978;2023-02-28T15:55:44;3.80;66.60
25438;DHT22;13364;49.084;9.978;2023-02-28T15:58:12;3.80;66.00
25438;DHT22;13364;49.084;9.978;2023-02-28T16:00:43;3.80;66.20
25438;DHT22;13364;49.084;9.978;2023-02-28T16:03:39;3.90;65.70
25438;DHT22;13364;49.084;9.978;2023-02-28T16:06:26;3.90;66.20
25438;DHT22;13364;49.084;9.978;2023-02-28T16:08:57;3.90;66.30
25438;DHT22;13364;49.084;9.978;2023-02-28T16:11:24;3.90;66.30
25438;DHT22;13364;49.084;9.978;2023-02-28T16:13:52;3.90;66.40
25438;DHT22;13364;49.084;9.978;2023-02-28T16:16:24;3.90;66.50
25438;DHT22;13364;49.084;9.978;2023-02-28T16:18:52;3.90;66.30
25438;DHT22;13364;49.084;9.978;2023-02-28T16:21:20;3.80;66.40
25438;DHT22;13364;49.084;9.978;2023-02-28T16:23:47;3.80;66.50
25438;DHT22;13364;49.084;9.978;2023-02-28T16:26:19;3.70;66.50
25438;DHT22;13364;49.084;9.978;2023-02-28T16:28:47;3.70;66.40
25438;DHT22;13364;49.084;9.978;2023-02-28T16:31:15;3.70;66.70
25438;DHT22;13364;49.084;9.978;2023-02-28T16:33:44;3.60;66.80
25438;DHT22;13364;49.084;9.978;2023-02-28T16:36:20;3.60;67.10
25438;DHT22;13364;49.084;9.978;2023-02-28T16:38:48;3.60;67.00
25438;DHT22;13364;49.084;9.978;2023-02-28T16:44:38;3.50;67.00
25438;DHT22;13364;49.084;9.978;2023-02-28T16:47:10;3.30;67.30
25438;DHT22;13364;49.084;9.978;2023-02-28T16:49:37;3.20;68.10
25438;DHT22;13364;49.084;9.978;2023-02-28T16:52:05;3.00;68.60
25438;DHT22;13364;49.084;9.978;2023-02-28T16:54:32;3.00;68.90
25438;DHT22;13364;49.084;9.978;2023-02-28T16:57:00;2.90;68.90
25438;DHT22;13364;49.084;9.978;2023-02-28T16:59:28;2.90;69.50
25438;DHT22;13364;49.084;9.978;2023-02-28T17:01:56;2.90;69.60
25438;DHT22;13364;49.084;9.978;2023-02-28T17:04:26;2.90;69.50
25438;DHT22;13364;49.084;9.978;2023-02-28T17:07:30;3.00;69.70
25438;DHT22;13364;49.084;9.978;2023-02-28T17:09:57;3.00;69.60
25438;DHT22;13364;49.084;9.978;2023-02-28T17:12:24;2.90;69.60
25438;DHT22;13364;49.084;9.978;2023-02-28T17:14:51;2.80;69.90
25438;DHT22;13364;49.084;9.978;2023-02-28T17:17:21;2.70;70.00
25438;DHT22;13364;49.084;9.978;2023-02-28T17:19:48;2.50;70.50
25438;DHT22;13364;49.084;9.978;2023-02-28T17:22:15;2.20;71.20
25438;DHT22;13364;49.084;9.978;2023-02-28T17:24:42;2.10;72.00
25438;DHT22;13364;49.084;9.978;2023-02-28T17:27:12;1.90;72.90
25438;DHT22;13364;49.084;9.978;2023-02-28T17:29:39;1.70;73.80
25438;DHT22;13364;49.084;9.978;2023-02-28T17:32:06;1.50;74.50
25438;DHT22;13364;49.084;9.978;2023-02-28T17:34:43;1.50;74.80
25438;DHT22;13364;49.084;9.978;2023-02-28T17:37:12;1.40;75.20
25438;DHT22;13364;49.084;9.978;2023-02-28T17:39:40;1.30;75.60
25438;DHT22;13364;49.084;9.978;2023-02-28T17:42:25;1.20;75.90
25438;DHT22;13364;49.084;9.978;2023-02-28T17:44:52;1.10;76.40
25438;DHT22;13364;49.084;9.978;2023-02-28T17:47:19;1.00;76.70
25438;DHT22;13364;49.084;9.978;2023-02-28T17:49:46;0.90;76.90
25438;DHT22;13364;49.084;9.978;2023-02-28T17:52:13;0.90;77.10
25438;DHT22;13364;49.084;9.978;2023-02-28T17:54:40;0.80;77.70
25438;DHT22;13364;49.084;9.978;2023-02-28T17:57:13;0.80;77.60
25438;DHT22;13364;49.084;9.978;2023-02-28T17:59:41;0.80;77.80
25438;DHT22;13364;49.084;9.978;2023-02-28T18:02:12;0.90;77.60
25438;DHT22;13364;49.084;9.978;2023-02-28T18:04:40;0.80;77.60
25438;DHT22;13364;49.084;9.978;2023-02-28T18:07:09;0.70;77.80
25438;DHT22;13364;49.084;9.978;2023-02-28T18:09:37;0.80;77.90
25438;DHT22;13364;49.084;9.978;2023-02-28T18:12:04;0.70;78.00
25438;DHT22;13364;49.084;9.978;2023-02-28T18:14:31;0.70;78.20
25438;DHT22;13364;49.084;9.978;2023-02-28T18:16:58;0.70;78.30
25438;DHT22;13364;49.084;9.978;2023-02-28T18:19:25;0.60;78.50
25438;DHT22;13364;49.084;9.978;2023-02-28T18:21:53;0.60;78.80
25438;DHT22;13364;49.084;9.978;2023-02-28T18:24:21;0.50;78.90
25438;DHT22;13364;49.084;9.978;2023-02-28T18:26:51;0.50;79.20
25438;DHT22;13364;49.084;9.978;2023-02-28T18:29:21;0.40;79.50
25438;DHT22;13364;49.084;9.978;2023-02-28T18:31:52;0.30;79.70
25438;DHT22;13364;49.084;9.978;2023-02-28T18:34:21;0.20;80.00
25438;DHT22;13364;49.084;9.978;2023-02-28T18:36:49;0.20;80.10
25438;DHT22;13364;49.084;9.978;2023-02-28T18:39:17;0.20;80.30
25438;DHT22;13364;49.084;9.978;2023-02-28T18:41:44;0.20;80.40
25438;DHT22;13364;49.084;9.978;2023-02-28T18:47:41;0.10;80.90